AAL779 KDFW-KSAN
Flight info
| Callsign | AAL779 |
|---|---|
| Flight time | 2h 57m |
| Altitude | 36000 |
| Route | WSTEX2 CIKAN EWM J4 SSO GBN J2 HOGGZ LUCKI1 |
| Aircraft | A321/M-SDE3FGHIRWY/LB1 |
Departure
| Time | 2026-05-05 16:29 |
|---|---|
| Airport | Dallas Fort Worth International Airport (KDFW) |
Arrival
| Time | 2026-05-05 19:27 |
|---|---|
| Airport | San Diego International Airport (KSAN) |
| Time | Latitude | Longitude | Altitude | Speed | Heading |
|---|---|---|---|---|---|
| 2026-05-05 15:50 | 32.89471 | -97.03739 | 587 ft | 0 kts | 355° |
| 2026-05-05 16:19 | 32.89470 | -97.03739 | 587 ft | 1 kts | 355° |
| 2026-05-05 16:19 | 32.89429 | -97.03739 | 587 ft | 4 kts | 57° |
| 2026-05-05 16:20 | 32.89421 | -97.03755 | 587 ft | 4 kts | 91° |
| 2026-05-05 16:20 | 32.89421 | -97.03738 | 587 ft | 0 kts | 91° |
| 2026-05-05 16:23 | 32.89421 | -97.03713 | 587 ft | 5 kts | 91° |
| 2026-05-05 16:23 | 32.89413 | -97.03650 | 587 ft | 9 kts | 103° |
| 2026-05-05 16:23 | 32.89395 | -97.03469 | 586 ft | 12 kts | 90° |
| 2026-05-05 16:24 | 32.89395 | -97.03364 | 586 ft | 13 kts | 90° |
| 2026-05-05 16:24 | 32.89394 | -97.03250 | 581 ft | 13 kts | 89° |
| 2026-05-05 16:24 | 32.89561 | -97.03195 | 580 ft | 14 kts | 360° |
| 2026-05-05 16:25 | 32.89664 | -97.03194 | 580 ft | 17 kts | 1° |
| 2026-05-05 16:25 | 32.89971 | -97.03191 | 578 ft | 26 kts | 0° |
| 2026-05-05 16:25 | 32.90168 | -97.03189 | 576 ft | 31 kts | 0° |
| 2026-05-05 16:26 | 32.90593 | -97.03188 | 576 ft | 30 kts | 0° |
| 2026-05-05 16:26 | 32.91002 | -97.03186 | 578 ft | 24 kts | 359° |
| 2026-05-05 16:27 | 32.91138 | -97.03187 | 581 ft | 19 kts | 360° |
| 2026-05-05 16:27 | 32.91274 | -97.03186 | 581 ft | 20 kts | 1° |
| 2026-05-05 16:27 | 32.91411 | -97.03184 | 581 ft | 17 kts | 359° |
| 2026-05-05 16:27 | 32.91512 | -97.03185 | 575 ft | 11 kts | 360° |
| 2026-05-05 16:28 | 32.91559 | -97.03125 | 576 ft | 11 kts | 83° |
| 2026-05-05 16:28 | 32.91561 | -97.03038 | 576 ft | 11 kts | 92° |
| 2026-05-05 16:28 | 32.91504 | -97.02989 | 580 ft | 15 kts | 177° |
| 2026-05-05 16:28 | 32.91272 | -97.02990 | 578 ft | 63 kts | 180° |
| 2026-05-05 16:29 | 32.90612 | -97.02994 | 576 ft | 124 kts | 180° |
| 2026-05-05 16:29 | 32.89577 | -97.02998 | 589 ft | 170 kts | 180° |
| 2026-05-05 16:29 | 32.88450 | -97.02986 | 1400 ft | 148 kts | 183° |
| 2026-05-05 16:29 | 32.87456 | -97.02954 | 2150 ft | 145 kts | 191° |
| 2026-05-05 16:30 | 32.86404 | -97.03086 | 2454 ft | 160 kts | 194° |
| 2026-05-05 16:30 | 32.85265 | -97.03286 | 2720 ft | 175 kts | 197° |
| 2026-05-05 16:30 | 32.83999 | -97.03505 | 2974 ft | 192 kts | 198° |
| 2026-05-05 16:30 | 32.82680 | -97.03913 | 3195 ft | 200 kts | 213° |
| 2026-05-05 16:31 | 32.81530 | -97.04941 | 3304 ft | 219 kts | 233° |
| 2026-05-05 16:31 | 32.80714 | -97.06526 | 3585 ft | 232 kts | 251° |
| 2026-05-05 16:31 | 32.80319 | -97.08424 | 4056 ft | 241 kts | 262° |
| 2026-05-05 16:31 | 32.80078 | -97.10422 | 4646 ft | 247 kts | 263° |
| 2026-05-05 16:32 | 32.79835 | -97.12466 | 5299 ft | 252 kts | 263° |
| 2026-05-05 16:32 | 32.79599 | -97.14535 | 5977 ft | 253 kts | 263° |
| 2026-05-05 16:32 | 32.79346 | -97.16614 | 6627 ft | 256 kts | 262° |
| 2026-05-05 16:32 | 32.79070 | -97.18716 | 7210 ft | 259 kts | 261° |
| 2026-05-05 16:33 | 32.78772 | -97.20838 | 7843 ft | 261 kts | 261° |
| 2026-05-05 16:33 | 32.78465 | -97.22971 | 8509 ft | 263 kts | 261° |
| 2026-05-05 16:33 | 32.78154 | -97.25118 | 9182 ft | 264 kts | 260° |
| 2026-05-05 16:33 | 32.77841 | -97.27278 | 9846 ft | 266 kts | 260° |
| 2026-05-05 16:34 | 32.77526 | -97.29469 | 10300 ft | 276 kts | 261° |
| 2026-05-05 16:34 | 32.77195 | -97.31806 | 10424 ft | 297 kts | 261° |
| 2026-05-05 16:34 | 32.76840 | -97.34307 | 10543 ft | 317 kts | 261° |
| 2026-05-05 16:34 | 32.76461 | -97.36968 | 10666 ft | 336 kts | 261° |
| 2026-05-05 16:35 | 32.76059 | -97.39769 | 10794 ft | 353 kts | 260° |
| 2026-05-05 16:35 | 32.75637 | -97.42684 | 11132 ft | 361 kts | 260° |
| 2026-05-05 16:35 | 32.75208 | -97.45645 | 11671 ft | 365 kts | 261° |
| 2026-05-05 16:35 | 32.74780 | -97.48620 | 12297 ft | 366 kts | 261° |
| 2026-05-05 16:36 | 32.74353 | -97.51601 | 13003 ft | 367 kts | 261° |
| 2026-05-05 16:36 | 32.73922 | -97.54601 | 13640 ft | 369 kts | 261° |
| 2026-05-05 16:36 | 32.73486 | -97.57612 | 14244 ft | 371 kts | 261° |
| 2026-05-05 16:36 | 32.73046 | -97.60634 | 14838 ft | 372 kts | 260° |
| 2026-05-05 16:37 | 32.72606 | -97.63665 | 15423 ft | 373 kts | 260° |
| 2026-05-05 16:37 | 32.72166 | -97.66712 | 15964 ft | 376 kts | 260° |
| 2026-05-05 16:37 | 32.71721 | -97.69782 | 16485 ft | 378 kts | 260° |
| 2026-05-05 16:37 | 32.71274 | -97.72864 | 17000 ft | 380 kts | 259° |
| 2026-05-05 16:38 | 32.70822 | -97.75964 | 17495 ft | 382 kts | 259° |
| 2026-05-05 16:38 | 32.70367 | -97.79080 | 17983 ft | 384 kts | 259° |
| 2026-05-05 16:38 | 32.69907 | -97.82214 | 18323 ft | 386 kts | 259° |
| 2026-05-05 16:38 | 32.69444 | -97.85360 | 18782 ft | 387 kts | 259° |
| 2026-05-05 16:39 | 32.68981 | -97.88508 | 19258 ft | 387 kts | 260° |
| 2026-05-05 16:39 | 32.68516 | -97.91657 | 19745 ft | 387 kts | 260° |
| 2026-05-05 16:39 | 32.68050 | -97.94802 | 20221 ft | 387 kts | 260° |
| 2026-05-05 16:39 | 32.67591 | -97.97908 | 20679 ft | 387 kts | 260° |
| 2026-05-05 16:40 | 32.67128 | -98.01051 | 21163 ft | 387 kts | 261° |
| 2026-05-05 16:40 | 32.66666 | -98.04194 | 21611 ft | 387 kts | 261° |
| 2026-05-05 16:40 | 32.66201 | -98.07341 | 22038 ft | 387 kts | 261° |
| 2026-05-05 16:40 | 32.65734 | -98.10489 | 22456 ft | 387 kts | 261° |
| 2026-05-05 16:41 | 32.65266 | -98.13635 | 22864 ft | 388 kts | 261° |
| 2026-05-05 16:41 | 32.64791 | -98.16785 | 23259 ft | 388 kts | 261° |
| 2026-05-05 16:41 | 32.64311 | -98.19940 | 23594 ft | 389 kts | 261° |
| 2026-05-05 16:41 | 32.63844 | -98.23108 | 23900 ft | 390 kts | 262° |
| 2026-05-05 16:42 | 32.63484 | -98.26309 | 24191 ft | 392 kts | 264° |
| 2026-05-05 16:42 | 32.63218 | -98.29529 | 24466 ft | 393 kts | 265° |
| 2026-05-05 16:42 | 32.62994 | -98.32771 | 24717 ft | 396 kts | 265° |
| 2026-05-05 16:42 | 32.62777 | -98.36026 | 25024 ft | 396 kts | 265° |
| 2026-05-05 16:43 | 32.62549 | -98.39278 | 25395 ft | 395 kts | 265° |
| 2026-05-05 16:43 | 32.62305 | -98.42518 | 25767 ft | 394 kts | 264° |
| 2026-05-05 16:43 | 32.62049 | -98.45752 | 26153 ft | 393 kts | 264° |
| 2026-05-05 16:43 | 32.61783 | -98.48974 | 26555 ft | 392 kts | 264° |
| 2026-05-05 16:44 | 32.61514 | -98.52190 | 26962 ft | 391 kts | 264° |
| 2026-05-05 16:44 | 32.61245 | -98.55390 | 27354 ft | 390 kts | 264° |
| 2026-05-05 16:44 | 32.60974 | -98.58592 | 27749 ft | 389 kts | 264° |
| 2026-05-05 16:44 | 32.60704 | -98.61780 | 28143 ft | 389 kts | 264° |
| 2026-05-05 16:45 | 32.60435 | -98.64969 | 28538 ft | 388 kts | 264° |
| 2026-05-05 16:45 | 32.60170 | -98.68147 | 28933 ft | 387 kts | 264° |
| 2026-05-05 16:45 | 32.59905 | -98.71320 | 29337 ft | 386 kts | 264° |
| 2026-05-05 16:45 | 32.59641 | -98.74485 | 29718 ft | 386 kts | 264° |
| 2026-05-05 16:46 | 32.59374 | -98.77648 | 30072 ft | 385 kts | 264° |
| 2026-05-05 16:46 | 32.59105 | -98.80799 | 30427 ft | 383 kts | 264° |
| 2026-05-05 16:46 | 32.58834 | -98.83936 | 30791 ft | 381 kts | 264° |
| 2026-05-05 16:46 | 32.58563 | -98.87054 | 31157 ft | 379 kts | 264° |
| 2026-05-05 16:47 | 32.58294 | -98.90162 | 31525 ft | 377 kts | 264° |
| 2026-05-05 16:47 | 32.58028 | -98.93244 | 31890 ft | 375 kts | 264° |
| 2026-05-05 16:47 | 32.57763 | -98.96313 | 32252 ft | 373 kts | 264° |
| 2026-05-05 16:47 | 32.57499 | -98.99369 | 32610 ft | 371 kts | 264° |
| 2026-05-05 16:48 | 32.57238 | -99.02402 | 32956 ft | 369 kts | 264° |
| 2026-05-05 16:48 | 32.56980 | -99.05425 | 33305 ft | 368 kts | 264° |
| 2026-05-05 16:48 | 32.56724 | -99.08390 | 33601 ft | 366 kts | 264° |
| 2026-05-05 16:48 | 32.56462 | -99.11382 | 33920 ft | 364 kts | 264° |
| 2026-05-05 16:49 | 32.56194 | -99.14401 | 34210 ft | 362 kts | 264° |
| 2026-05-05 16:49 | 32.55935 | -99.17321 | 34485 ft | 361 kts | 264° |
| 2026-05-05 16:49 | 32.55667 | -99.20313 | 34761 ft | 360 kts | 264° |
| 2026-05-05 16:49 | 32.55404 | -99.23259 | 35031 ft | 358 kts | 264° |
| 2026-05-05 16:50 | 32.55143 | -99.26189 | 35302 ft | 357 kts | 264° |
| 2026-05-05 16:50 | 32.54882 | -99.29115 | 35570 ft | 356 kts | 263° |
| 2026-05-05 16:50 | 32.54622 | -99.32035 | 35701 ft | 357 kts | 263° |
| 2026-05-05 16:50 | 32.54374 | -99.34966 | 35729 ft | 358 kts | 264° |
| 2026-05-05 16:51 | 32.54012 | -99.40870 | 35771 ft | 359 kts | 265° |
| 2026-05-05 16:51 | 32.53698 | -99.46740 | 35784 ft | 360 kts | 265° |
| 2026-05-05 16:52 | 32.53365 | -99.52657 | 35806 ft | 360 kts | 265° |
| 2026-05-05 16:52 | 32.53008 | -99.58577 | 35820 ft | 360 kts | 264° |
| 2026-05-05 16:53 | 32.52644 | -99.64499 | 35834 ft | 361 kts | 264° |
| 2026-05-05 16:53 | 32.52275 | -99.70426 | 35839 ft | 361 kts | 264° |
| 2026-05-05 16:54 | 32.51907 | -99.76360 | 35837 ft | 361 kts | 264° |
| 2026-05-05 16:54 | 32.51538 | -99.82294 | 35834 ft | 361 kts | 264° |
| 2026-05-05 16:55 | 32.51158 | -99.88232 | 35847 ft | 361 kts | 264° |
| 2026-05-05 16:55 | 32.50779 | -99.94164 | 35837 ft | 361 kts | 264° |
| 2026-05-05 16:56 | 32.50397 | -100.00099 | 35822 ft | 361 kts | 264° |
| 2026-05-05 16:56 | 32.50016 | -100.06031 | 35806 ft | 361 kts | 264° |
| 2026-05-05 16:57 | 32.49636 | -100.11961 | 35789 ft | 361 kts | 264° |
| 2026-05-05 16:57 | 32.49250 | -100.17892 | 35772 ft | 361 kts | 264° |
| 2026-05-05 16:58 | 32.48857 | -100.23822 | 35756 ft | 361 kts | 263° |
| 2026-05-05 16:58 | 32.48457 | -100.29749 | 35745 ft | 361 kts | 263° |
| 2026-05-05 16:59 | 32.48256 | -100.32712 | 35908 ft | 361 kts | 263° |
| 2026-05-05 16:59 | 32.48062 | -100.35678 | 35925 ft | 361 kts | 264° |
| 2026-05-05 16:59 | 32.47676 | -100.41615 | 35927 ft | 362 kts | 263° |
| 2026-05-05 17:00 | 32.47285 | -100.47553 | 35924 ft | 361 kts | 263° |
| 2026-05-05 17:00 | 32.46892 | -100.53444 | 35926 ft | 361 kts | 263° |
| 2026-05-05 17:01 | 32.46493 | -100.59379 | 35909 ft | 362 kts | 263° |
| 2026-05-05 17:01 | 32.46086 | -100.65313 | 35874 ft | 362 kts | 263° |
| 2026-05-05 17:02 | 32.45679 | -100.71257 | 35842 ft | 362 kts | 263° |
| 2026-05-05 17:02 | 32.45272 | -100.77205 | 35809 ft | 362 kts | 263° |
| 2026-05-05 17:03 | 32.44864 | -100.83149 | 35799 ft | 362 kts | 263° |
| 2026-05-05 17:03 | 32.44450 | -100.89096 | 35807 ft | 362 kts | 263° |
| 2026-05-05 17:04 | 32.44033 | -100.95039 | 35811 ft | 362 kts | 263° |
| 2026-05-05 17:04 | 32.43616 | -101.00987 | 35806 ft | 362 kts | 263° |
| 2026-05-05 17:05 | 32.43195 | -101.06928 | 35798 ft | 362 kts | 263° |
| 2026-05-05 17:05 | 32.42771 | -101.12869 | 35784 ft | 362 kts | 263° |
| 2026-05-05 17:06 | 32.42339 | -101.18815 | 35767 ft | 362 kts | 263° |
| 2026-05-05 17:06 | 32.41979 | -101.23752 | 35753 ft | 362 kts | 263° |
| 2026-05-05 17:07 | 32.41542 | -101.29688 | 35756 ft | 362 kts | 263° |
| 2026-05-05 17:07 | 32.41108 | -101.35624 | 35773 ft | 362 kts | 262° |
| 2026-05-05 17:08 | 32.40670 | -101.41549 | 35768 ft | 361 kts | 262° |
| 2026-05-05 17:08 | 32.40228 | -101.47467 | 35768 ft | 361 kts | 262° |
| 2026-05-05 17:09 | 32.39791 | -101.53380 | 35769 ft | 361 kts | 262° |
| 2026-05-05 17:09 | 32.39346 | -101.59291 | 35769 ft | 361 kts | 262° |
| 2026-05-05 17:10 | 32.38893 | -101.65205 | 35771 ft | 361 kts | 262° |
| 2026-05-05 17:10 | 32.38444 | -101.71113 | 35784 ft | 360 kts | 261° |
| 2026-05-05 17:11 | 32.37994 | -101.77013 | 35784 ft | 360 kts | 261° |
| 2026-05-05 17:11 | 32.37539 | -101.82903 | 35785 ft | 359 kts | 261° |
| 2026-05-05 17:12 | 32.37077 | -101.88790 | 35780 ft | 359 kts | 261° |
| 2026-05-05 17:12 | 32.36618 | -101.94673 | 35782 ft | 359 kts | 261° |
| 2026-05-05 17:13 | 32.36160 | -102.00561 | 35780 ft | 359 kts | 261° |
| 2026-05-05 17:13 | 32.35701 | -102.06434 | 35779 ft | 356 kts | 261° |
| 2026-05-05 17:14 | 32.35243 | -102.12227 | 35770 ft | 353 kts | 261° |
| 2026-05-05 17:14 | 32.34782 | -102.17972 | 35770 ft | 353 kts | 261° |
| 2026-05-05 17:15 | 32.34315 | -102.23756 | 35788 ft | 354 kts | 261° |
| 2026-05-05 17:15 | 32.33842 | -102.29548 | 35789 ft | 354 kts | 261° |
| 2026-05-05 17:16 | 32.33366 | -102.35338 | 35801 ft | 354 kts | 261° |
| 2026-05-05 17:16 | 32.32885 | -102.41133 | 35845 ft | 354 kts | 261° |
| 2026-05-05 17:17 | 32.32418 | -102.46862 | 35791 ft | 348 kts | 261° |
| 2026-05-05 17:17 | 32.31949 | -102.52554 | 35796 ft | 348 kts | 261° |
| 2026-05-05 17:18 | 32.31478 | -102.58247 | 35795 ft | 348 kts | 261° |
| 2026-05-05 17:18 | 32.30997 | -102.63949 | 35803 ft | 349 kts | 261° |
| 2026-05-05 17:19 | 32.30516 | -102.69651 | 35808 ft | 349 kts | 261° |
| 2026-05-05 17:19 | 32.30032 | -102.75362 | 35810 ft | 349 kts | 261° |
| 2026-05-05 17:20 | 32.29550 | -102.81070 | 35830 ft | 349 kts | 260° |
| 2026-05-05 17:20 | 32.29062 | -102.86774 | 35826 ft | 349 kts | 260° |
| 2026-05-05 17:21 | 32.28574 | -102.92466 | 35822 ft | 348 kts | 260° |
| 2026-05-05 17:22 | 32.27836 | -103.00999 | 35819 ft | 348 kts | 260° |
| 2026-05-05 17:22 | 32.27345 | -103.06679 | 35820 ft | 347 kts | 260° |
| 2026-05-05 17:23 | 32.26845 | -103.12357 | 35819 ft | 347 kts | 260° |
| 2026-05-05 17:23 | 32.26340 | -103.18027 | 35810 ft | 347 kts | 259° |
| 2026-05-05 17:24 | 32.25837 | -103.23701 | 35812 ft | 347 kts | 259° |
| 2026-05-05 17:24 | 32.25338 | -103.29344 | 35812 ft | 348 kts | 259° |
| 2026-05-05 17:25 | 32.24830 | -103.35025 | 35812 ft | 348 kts | 259° |
| 2026-05-05 17:25 | 32.24315 | -103.40705 | 35814 ft | 348 kts | 259° |
| 2026-05-05 17:26 | 32.23806 | -103.46394 | 35816 ft | 348 kts | 259° |
| 2026-05-05 17:26 | 32.23292 | -103.52078 | 35820 ft | 348 kts | 259° |
| 2026-05-05 17:27 | 32.22766 | -103.57761 | 35819 ft | 348 kts | 259° |
| 2026-05-05 17:27 | 32.22251 | -103.63453 | 35818 ft | 348 kts | 259° |
| 2026-05-05 17:28 | 32.21728 | -103.69140 | 35816 ft | 349 kts | 259° |
| 2026-05-05 17:28 | 32.21196 | -103.74834 | 35817 ft | 349 kts | 259° |
| 2026-05-05 17:29 | 32.20669 | -103.80526 | 35816 ft | 349 kts | 259° |
| 2026-05-05 17:29 | 32.20133 | -103.86220 | 35833 ft | 349 kts | 259° |
| 2026-05-05 17:30 | 32.19596 | -103.91909 | 35827 ft | 349 kts | 259° |
| 2026-05-05 17:30 | 32.19060 | -103.97597 | 35819 ft | 348 kts | 259° |
| 2026-05-05 17:31 | 32.18518 | -104.03270 | 35820 ft | 348 kts | 259° |
| 2026-05-05 17:31 | 32.17977 | -104.08940 | 35903 ft | 347 kts | 259° |
| 2026-05-05 17:32 | 32.17437 | -104.14601 | 35917 ft | 347 kts | 259° |
| 2026-05-05 17:32 | 32.16892 | -104.20262 | 35923 ft | 347 kts | 258° |
| 2026-05-05 17:33 | 32.16350 | -104.25890 | 35875 ft | 348 kts | 258° |
| 2026-05-05 17:33 | 32.15791 | -104.31582 | 35875 ft | 350 kts | 258° |
| 2026-05-05 17:34 | 32.15232 | -104.37298 | 35873 ft | 351 kts | 258° |
| 2026-05-05 17:34 | 32.14674 | -104.43021 | 35865 ft | 351 kts | 258° |
| 2026-05-05 17:35 | 32.14110 | -104.48754 | 35848 ft | 352 kts | 258° |
| 2026-05-05 17:35 | 32.13541 | -104.54490 | 35840 ft | 353 kts | 258° |
| 2026-05-05 17:36 | 32.12967 | -104.60241 | 35817 ft | 352 kts | 258° |
| 2026-05-05 17:36 | 32.12395 | -104.65986 | 35830 ft | 352 kts | 258° |
| 2026-05-05 17:37 | 32.11821 | -104.71727 | 35834 ft | 353 kts | 258° |
| 2026-05-05 17:37 | 32.11236 | -104.77475 | 35834 ft | 352 kts | 258° |
| 2026-05-05 17:38 | 32.10657 | -104.83214 | 35836 ft | 352 kts | 258° |
| 2026-05-05 17:38 | 32.10071 | -104.88955 | 35834 ft | 353 kts | 258° |
| 2026-05-05 17:39 | 32.09484 | -104.94690 | 35856 ft | 352 kts | 258° |
| 2026-05-05 17:39 | 32.08898 | -105.00421 | 35852 ft | 351 kts | 258° |
| 2026-05-05 17:40 | 32.08306 | -105.06124 | 35851 ft | 350 kts | 258° |
| 2026-05-05 17:40 | 32.07712 | -105.11821 | 35851 ft | 350 kts | 258° |
| 2026-05-05 17:41 | 32.07120 | -105.17511 | 35847 ft | 350 kts | 258° |
| 2026-05-05 17:41 | 32.06524 | -105.23204 | 35848 ft | 350 kts | 258° |
| 2026-05-05 17:42 | 32.05924 | -105.28890 | 35890 ft | 350 kts | 257° |
| 2026-05-05 17:42 | 32.05328 | -105.34545 | 35847 ft | 346 kts | 257° |
| 2026-05-05 17:43 | 32.04738 | -105.40178 | 35840 ft | 346 kts | 257° |
| 2026-05-05 17:43 | 32.04141 | -105.45818 | 35839 ft | 347 kts | 257° |
| 2026-05-05 17:44 | 32.03534 | -105.51423 | 35843 ft | 346 kts | 257° |
| 2026-05-05 17:44 | 32.02927 | -105.57056 | 35847 ft | 347 kts | 257° |
| 2026-05-05 17:45 | 32.02327 | -105.62705 | 35848 ft | 347 kts | 257° |
| 2026-05-05 17:45 | 32.01712 | -105.68347 | 35865 ft | 347 kts | 256° |
| 2026-05-05 17:46 | 32.01093 | -105.73989 | 35860 ft | 347 kts | 256° |
| 2026-05-05 17:46 | 32.00474 | -105.79636 | 35869 ft | 348 kts | 256° |
| 2026-05-05 17:47 | 31.99856 | -105.85283 | 35870 ft | 348 kts | 256° |
| 2026-05-05 17:47 | 31.99236 | -105.90935 | 35868 ft | 348 kts | 256° |
| 2026-05-05 17:48 | 31.98616 | -105.96579 | 35864 ft | 348 kts | 256° |
| 2026-05-05 17:48 | 31.97985 | -106.02222 | 35891 ft | 347 kts | 256° |
| 2026-05-05 17:49 | 31.97351 | -106.07861 | 35913 ft | 347 kts | 256° |
| 2026-05-05 17:49 | 31.96722 | -106.13497 | 35945 ft | 347 kts | 256° |
| 2026-05-05 17:50 | 31.96093 | -106.19136 | 35961 ft | 347 kts | 256° |
| 2026-05-05 17:50 | 31.95458 | -106.24780 | 35988 ft | 348 kts | 256° |
| 2026-05-05 17:51 | 31.95558 | -106.30553 | 36011 ft | 361 kts | 268° |
| 2026-05-05 17:51 | 31.96257 | -106.36405 | 36020 ft | 361 kts | 268° |
| 2026-05-05 17:52 | 31.96949 | -106.42270 | 36007 ft | 362 kts | 268° |
| 2026-05-05 17:52 | 31.97633 | -106.48142 | 35998 ft | 362 kts | 268° |
| 2026-05-05 17:53 | 31.98315 | -106.54023 | 35990 ft | 363 kts | 268° |
| 2026-05-05 17:53 | 31.98885 | -106.58925 | 36021 ft | 364 kts | 268° |
| 2026-05-05 17:54 | 31.99571 | -106.64827 | 36029 ft | 363 kts | 268° |
| 2026-05-05 17:54 | 32.00358 | -106.71688 | 36041 ft | 363 kts | 268° |
| 2026-05-05 17:55 | 32.00921 | -106.76632 | 36022 ft | 363 kts | 268° |
| 2026-05-05 17:55 | 32.01592 | -106.82536 | 35994 ft | 364 kts | 268° |
| 2026-05-05 17:56 | 32.02260 | -106.88426 | 35930 ft | 361 kts | 268° |
| 2026-05-05 17:56 | 32.02923 | -106.94289 | 35930 ft | 361 kts | 268° |
| 2026-05-05 17:57 | 32.03588 | -107.00159 | 35929 ft | 362 kts | 268° |
| 2026-05-05 17:57 | 32.04249 | -107.06031 | 35939 ft | 362 kts | 268° |
| 2026-05-05 17:58 | 32.04903 | -107.11915 | 35923 ft | 362 kts | 268° |
| 2026-05-05 17:58 | 32.05551 | -107.17793 | 35896 ft | 362 kts | 268° |
| 2026-05-05 17:59 | 32.06209 | -107.23678 | 35871 ft | 362 kts | 268° |
| 2026-05-05 17:59 | 32.06865 | -107.29566 | 35861 ft | 362 kts | 268° |
| 2026-05-05 18:00 | 32.07509 | -107.35451 | 35862 ft | 362 kts | 268° |
| 2026-05-05 18:00 | 32.08149 | -107.41335 | 35911 ft | 362 kts | 268° |
| 2026-05-05 18:01 | 32.08780 | -107.47157 | 35933 ft | 360 kts | 267° |
| 2026-05-05 18:01 | 32.09415 | -107.53020 | 35960 ft | 361 kts | 267° |
| 2026-05-05 18:02 | 32.10054 | -107.58894 | 35994 ft | 361 kts | 268° |
| 2026-05-05 18:02 | 32.10687 | -107.64786 | 36020 ft | 362 kts | 267° |
| 2026-05-05 18:03 | 32.11311 | -107.70671 | 36033 ft | 361 kts | 267° |
| 2026-05-05 18:03 | 32.11931 | -107.76555 | 36037 ft | 362 kts | 267° |
| 2026-05-05 18:04 | 32.12553 | -107.82454 | 35870 ft | 363 kts | 267° |
| 2026-05-05 18:04 | 32.13173 | -107.88364 | 35877 ft | 363 kts | 267° |
| 2026-05-05 18:05 | 32.13803 | -107.94320 | 35876 ft | 364 kts | 267° |
| 2026-05-05 18:05 | 32.14419 | -108.00207 | 35874 ft | 364 kts | 267° |
| 2026-05-05 18:06 | 32.15035 | -108.06134 | 35884 ft | 364 kts | 267° |
| 2026-05-05 18:06 | 32.15654 | -108.12066 | 35878 ft | 364 kts | 267° |
| 2026-05-05 18:07 | 32.16271 | -108.17999 | 35891 ft | 364 kts | 267° |
| 2026-05-05 18:07 | 32.16881 | -108.23933 | 35882 ft | 364 kts | 267° |
| 2026-05-05 18:08 | 32.17483 | -108.29869 | 35891 ft | 364 kts | 267° |
| 2026-05-05 18:08 | 32.18087 | -108.35802 | 35920 ft | 364 kts | 267° |
| 2026-05-05 18:09 | 32.18685 | -108.41741 | 35949 ft | 364 kts | 267° |
| 2026-05-05 18:09 | 32.19277 | -108.47670 | 36005 ft | 363 kts | 267° |
| 2026-05-05 18:10 | 32.19871 | -108.53590 | 36021 ft | 363 kts | 267° |
| 2026-05-05 18:10 | 32.20468 | -108.59513 | 36046 ft | 363 kts | 267° |
| 2026-05-05 18:11 | 32.21061 | -108.65432 | 36063 ft | 363 kts | 267° |
| 2026-05-05 18:11 | 32.21640 | -108.71355 | 36064 ft | 363 kts | 266° |
| 2026-05-05 18:12 | 32.22219 | -108.77286 | 35888 ft | 363 kts | 266° |
| 2026-05-05 18:12 | 32.22799 | -108.83209 | 35895 ft | 363 kts | 266° |
| 2026-05-05 18:13 | 32.23379 | -108.89126 | 35907 ft | 363 kts | 266° |
| 2026-05-05 18:13 | 32.23946 | -108.95030 | 35894 ft | 360 kts | 266° |
| 2026-05-05 18:14 | 32.24513 | -109.00897 | 35880 ft | 359 kts | 266° |
| 2026-05-05 18:14 | 32.25075 | -109.06775 | 35885 ft | 361 kts | 266° |
| 2026-05-05 18:15 | 32.25636 | -109.12664 | 35916 ft | 361 kts | 266° |
| 2026-05-05 18:15 | 32.26194 | -109.18571 | 35906 ft | 362 kts | 266° |
| 2026-05-05 18:16 | 32.26747 | -109.24483 | 35901 ft | 362 kts | 266° |
| 2026-05-05 18:16 | 32.27793 | -109.30367 | 35902 ft | 372 kts | 273° |
| 2026-05-05 18:17 | 32.29081 | -109.36292 | 35899 ft | 372 kts | 273° |
| 2026-05-05 18:17 | 32.30357 | -109.42223 | 35905 ft | 372 kts | 273° |
| 2026-05-05 18:18 | 32.31632 | -109.48162 | 35931 ft | 373 kts | 273° |
| 2026-05-05 18:18 | 32.32908 | -109.54099 | 35929 ft | 372 kts | 273° |
| 2026-05-05 18:19 | 32.34181 | -109.60033 | 35919 ft | 372 kts | 273° |
| 2026-05-05 18:19 | 32.35448 | -109.65968 | 35917 ft | 372 kts | 273° |
| 2026-05-05 18:20 | 32.36710 | -109.71909 | 35924 ft | 372 kts | 273° |
| 2026-05-05 18:20 | 32.37961 | -109.77841 | 35908 ft | 371 kts | 273° |
| 2026-05-05 18:21 | 32.39213 | -109.83768 | 35925 ft | 372 kts | 272° |
| 2026-05-05 18:21 | 32.40469 | -109.89706 | 35921 ft | 372 kts | 272° |
| 2026-05-05 18:22 | 32.41728 | -109.95654 | 35924 ft | 373 kts | 272° |
| 2026-05-05 18:22 | 32.42977 | -110.01604 | 35924 ft | 373 kts | 272° |
| 2026-05-05 18:23 | 32.44227 | -110.07563 | 35934 ft | 373 kts | 272° |
| 2026-05-05 18:23 | 32.45474 | -110.13522 | 35937 ft | 373 kts | 272° |
| 2026-05-05 18:24 | 32.46719 | -110.19495 | 35932 ft | 374 kts | 272° |
| 2026-05-05 18:24 | 32.47962 | -110.25467 | 35929 ft | 374 kts | 272° |
| 2026-05-05 18:25 | 32.49199 | -110.31454 | 35934 ft | 375 kts | 272° |
| 2026-05-05 18:25 | 32.50434 | -110.37448 | 35934 ft | 374 kts | 272° |
| 2026-05-05 18:26 | 32.51673 | -110.43434 | 35926 ft | 373 kts | 273° |
| 2026-05-05 18:26 | 32.52904 | -110.49373 | 35944 ft | 371 kts | 272° |
| 2026-05-05 18:27 | 32.54119 | -110.55307 | 35938 ft | 371 kts | 272° |
| 2026-05-05 18:27 | 32.55332 | -110.61247 | 35945 ft | 371 kts | 272° |
| 2026-05-05 18:28 | 32.57148 | -110.70173 | 35942 ft | 371 kts | 272° |
| 2026-05-05 18:28 | 32.58360 | -110.76121 | 35948 ft | 371 kts | 272° |
| 2026-05-05 18:29 | 32.59573 | -110.82083 | 35965 ft | 371 kts | 272° |
| 2026-05-05 18:29 | 32.60773 | -110.88006 | 35949 ft | 369 kts | 272° |
| 2026-05-05 18:30 | 32.61966 | -110.93928 | 35956 ft | 369 kts | 272° |
| 2026-05-05 18:30 | 32.63150 | -110.99813 | 35964 ft | 370 kts | 272° |
| 2026-05-05 18:31 | 32.64343 | -111.05748 | 35978 ft | 370 kts | 272° |
| 2026-05-05 18:31 | 32.65536 | -111.11682 | 35984 ft | 369 kts | 272° |
| 2026-05-05 18:32 | 32.66722 | -111.17589 | 36005 ft | 368 kts | 272° |
| 2026-05-05 18:32 | 32.67898 | -111.23509 | 36006 ft | 368 kts | 272° |
| 2026-05-05 18:33 | 32.69069 | -111.29433 | 36002 ft | 369 kts | 272° |
| 2026-05-05 18:33 | 32.70243 | -111.35362 | 35997 ft | 369 kts | 272° |
| 2026-05-05 18:34 | 32.71417 | -111.41292 | 35991 ft | 370 kts | 272° |
| 2026-05-05 18:34 | 32.72589 | -111.47236 | 35981 ft | 369 kts | 272° |
| 2026-05-05 18:35 | 32.73754 | -111.53171 | 35971 ft | 369 kts | 272° |
| 2026-05-05 18:35 | 32.74923 | -111.59112 | 35947 ft | 369 kts | 272° |
| 2026-05-05 18:36 | 32.76087 | -111.65052 | 35953 ft | 369 kts | 272° |
| 2026-05-05 18:36 | 32.77249 | -111.70996 | 35954 ft | 369 kts | 272° |
| 2026-05-05 18:37 | 32.78410 | -111.76941 | 35956 ft | 369 kts | 272° |
| 2026-05-05 18:37 | 32.79552 | -111.82833 | 35948 ft | 368 kts | 271° |
| 2026-05-05 18:38 | 32.80697 | -111.88771 | 35940 ft | 369 kts | 272° |
| 2026-05-05 18:38 | 32.81850 | -111.94726 | 35941 ft | 370 kts | 271° |
| 2026-05-05 18:39 | 32.82993 | -112.00696 | 35948 ft | 370 kts | 272° |
| 2026-05-05 18:39 | 32.84139 | -112.06671 | 35952 ft | 371 kts | 272° |
| 2026-05-05 18:40 | 32.85285 | -112.12650 | 35956 ft | 371 kts | 271° |
| 2026-05-05 18:40 | 32.86236 | -112.17625 | 35969 ft | 371 kts | 272° |
| 2026-05-05 18:41 | 32.87388 | -112.23656 | 35964 ft | 372 kts | 272° |
| 2026-05-05 18:41 | 32.88520 | -112.29621 | 35963 ft | 372 kts | 271° |
| 2026-05-05 18:42 | 32.89663 | -112.35666 | 35967 ft | 373 kts | 271° |
| 2026-05-05 18:42 | 32.90789 | -112.41649 | 36003 ft | 373 kts | 272° |
| 2026-05-05 18:43 | 32.91927 | -112.47671 | 35971 ft | 373 kts | 272° |
| 2026-05-05 18:43 | 32.93058 | -112.53703 | 35989 ft | 374 kts | 272° |
| 2026-05-05 18:44 | 32.94195 | -112.59759 | 35989 ft | 376 kts | 272° |
| 2026-05-05 18:44 | 32.95267 | -112.65836 | 35993 ft | 370 kts | 267° |
| 2026-05-05 18:45 | 32.95057 | -112.71783 | 36003 ft | 355 kts | 254° |
| 2026-05-05 18:45 | 32.94255 | -112.77594 | 35999 ft | 356 kts | 255° |
| 2026-05-05 18:46 | 32.93468 | -112.83428 | 36004 ft | 357 kts | 255° |
| 2026-05-05 18:46 | 32.92684 | -112.89276 | 35994 ft | 358 kts | 255° |
| 2026-05-05 18:47 | 32.91895 | -112.95131 | 35984 ft | 359 kts | 255° |
| 2026-05-05 18:47 | 32.91097 | -113.00994 | 35980 ft | 359 kts | 255° |
| 2026-05-05 18:48 | 32.90295 | -113.06861 | 35968 ft | 359 kts | 255° |
| 2026-05-05 18:48 | 32.89492 | -113.12728 | 35964 ft | 360 kts | 255° |
| 2026-05-05 18:49 | 32.88684 | -113.18592 | 35951 ft | 359 kts | 255° |
| 2026-05-05 18:49 | 32.87874 | -113.24454 | 35945 ft | 360 kts | 255° |
| 2026-05-05 18:50 | 32.87062 | -113.30327 | 35943 ft | 360 kts | 255° |
| 2026-05-05 18:50 | 32.86240 | -113.36209 | 35945 ft | 360 kts | 255° |
| 2026-05-05 18:51 | 32.85419 | -113.42090 | 35938 ft | 361 kts | 255° |
| 2026-05-05 18:51 | 32.84595 | -113.47973 | 35943 ft | 361 kts | 255° |
| 2026-05-05 18:52 | 32.83767 | -113.53854 | 35937 ft | 361 kts | 255° |
| 2026-05-05 18:52 | 32.82934 | -113.59737 | 35967 ft | 361 kts | 255° |
| 2026-05-05 18:53 | 32.82101 | -113.65615 | 35970 ft | 361 kts | 255° |
| 2026-05-05 18:53 | 32.81267 | -113.71495 | 35970 ft | 361 kts | 255° |
| 2026-05-05 18:54 | 32.80428 | -113.77377 | 35979 ft | 361 kts | 255° |
| 2026-05-05 18:54 | 32.79587 | -113.83268 | 35970 ft | 362 kts | 255° |
| 2026-05-05 18:55 | 32.78745 | -113.89163 | 35959 ft | 362 kts | 255° |
| 2026-05-05 18:55 | 32.77889 | -113.95064 | 35955 ft | 363 kts | 255° |
| 2026-05-05 18:56 | 32.77535 | -114.01096 | 35952 ft | 369 kts | 262° |
| 2026-05-05 18:56 | 32.77483 | -114.07193 | 35950 ft | 370 kts | 263° |
| 2026-05-05 18:57 | 32.77643 | -114.13329 | 35936 ft | 373 kts | 265° |
| 2026-05-05 18:57 | 32.77952 | -114.19502 | 35935 ft | 375 kts | 265° |
| 2026-05-05 18:58 | 32.78246 | -114.25679 | 35939 ft | 375 kts | 265° |
| 2026-05-05 18:58 | 32.78493 | -114.31863 | 35986 ft | 376 kts | 265° |
| 2026-05-05 18:59 | 32.78793 | -114.38078 | 35981 ft | 381 kts | 270° |
| 2026-05-05 18:59 | 32.79424 | -114.41177 | 35983 ft | 392 kts | 279° |
| 2026-05-05 18:59 | 32.80285 | -114.44259 | 35984 ft | 393 kts | 279° |
| 2026-05-05 19:00 | 32.82000 | -114.50434 | 35979 ft | 394 kts | 279° |
| 2026-05-05 19:00 | 32.83709 | -114.56627 | 35982 ft | 394 kts | 278° |
| 2026-05-05 19:01 | 32.85405 | -114.62834 | 35986 ft | 395 kts | 278° |
| 2026-05-05 19:01 | 32.87106 | -114.69049 | 35992 ft | 395 kts | 278° |
| 2026-05-05 19:02 | 32.87882 | -114.75322 | 35995 ft | 377 kts | 262° |
| 2026-05-05 19:02 | 32.87728 | -114.81557 | 35984 ft | 378 kts | 262° |
| 2026-05-05 19:03 | 32.87597 | -114.87806 | 35992 ft | 378 kts | 262° |
| 2026-05-05 19:03 | 32.87458 | -114.94008 | 35991 ft | 378 kts | 262° |
| 2026-05-05 19:04 | 32.87314 | -115.00292 | 35986 ft | 378 kts | 262° |
| 2026-05-05 19:04 | 32.87239 | -115.03386 | 35873 ft | 380 kts | 263° |
| 2026-05-05 19:04 | 32.87162 | -115.06528 | 35673 ft | 382 kts | 263° |
| 2026-05-05 19:05 | 32.87083 | -115.09708 | 35438 ft | 387 kts | 263° |
| 2026-05-05 19:05 | 32.87005 | -115.12910 | 35207 ft | 388 kts | 263° |
| 2026-05-05 19:05 | 32.86929 | -115.16114 | 34767 ft | 388 kts | 263° |
| 2026-05-05 19:05 | 32.86852 | -115.19317 | 34114 ft | 388 kts | 263° |
| 2026-05-05 19:06 | 32.86774 | -115.22531 | 33326 ft | 389 kts | 263° |
| 2026-05-05 19:06 | 32.86695 | -115.25743 | 32595 ft | 389 kts | 262° |
| 2026-05-05 19:06 | 32.86613 | -115.28954 | 31851 ft | 389 kts | 262° |
| 2026-05-05 19:06 | 32.86530 | -115.32171 | 31093 ft | 389 kts | 262° |
| 2026-05-05 19:07 | 32.86316 | -115.35377 | 30226 ft | 390 kts | 257° |
| 2026-05-05 19:07 | 32.85867 | -115.38575 | 29144 ft | 395 kts | 257° |
| 2026-05-05 19:07 | 32.85405 | -115.41809 | 28214 ft | 397 kts | 257° |
| 2026-05-05 19:07 | 32.84943 | -115.45058 | 27205 ft | 401 kts | 258° |
| 2026-05-05 19:08 | 32.84477 | -115.48356 | 26121 ft | 407 kts | 258° |
| 2026-05-05 19:08 | 32.83987 | -115.51696 | 25348 ft | 415 kts | 258° |
| 2026-05-05 19:08 | 32.83442 | -115.55135 | 24781 ft | 430 kts | 258° |
| 2026-05-05 19:08 | 32.82858 | -115.58662 | 24131 ft | 437 kts | 258° |
| 2026-05-05 19:09 | 32.82263 | -115.62216 | 23457 ft | 439 kts | 258° |
| 2026-05-05 19:09 | 32.81668 | -115.65773 | 22752 ft | 439 kts | 258° |
| 2026-05-05 19:09 | 32.81075 | -115.69332 | 22104 ft | 438 kts | 259° |
| 2026-05-05 19:09 | 32.80485 | -115.72871 | 21447 ft | 435 kts | 259° |
| 2026-05-05 19:10 | 32.79902 | -115.76381 | 20796 ft | 431 kts | 259° |
| 2026-05-05 19:10 | 32.79326 | -115.79868 | 20148 ft | 428 kts | 259° |
| 2026-05-05 19:10 | 32.78756 | -115.83325 | 19505 ft | 425 kts | 259° |
| 2026-05-05 19:10 | 32.78361 | -115.86785 | 18864 ft | 421 kts | 265° |
| 2026-05-05 19:11 | 32.78112 | -115.90242 | 18210 ft | 418 kts | 265° |
| 2026-05-05 19:11 | 32.77864 | -115.93677 | 17561 ft | 415 kts | 265° |
| 2026-05-05 19:11 | 32.77614 | -115.97089 | 16842 ft | 414 kts | 265° |
| 2026-05-05 19:11 | 32.77362 | -116.00469 | 16216 ft | 409 kts | 265° |
| 2026-05-05 19:12 | 32.77108 | -116.03823 | 15610 ft | 406 kts | 265° |
| 2026-05-05 19:12 | 32.76854 | -116.07147 | 15012 ft | 401 kts | 265° |
| 2026-05-05 19:12 | 32.76605 | -116.10383 | 14827 ft | 385 kts | 265° |
| 2026-05-05 19:12 | 32.76367 | -116.13477 | 14702 ft | 368 kts | 265° |
| 2026-05-05 19:13 | 32.76137 | -116.16432 | 14598 ft | 351 kts | 265° |
| 2026-05-05 19:13 | 32.75916 | -116.19254 | 14475 ft | 336 kts | 265° |
| 2026-05-05 19:13 | 32.75705 | -116.21961 | 14323 ft | 323 kts | 265° |
| 2026-05-05 19:13 | 32.75501 | -116.24587 | 14031 ft | 316 kts | 265° |
| 2026-05-05 19:14 | 32.75301 | -116.27176 | 13778 ft | 312 kts | 265° |
| 2026-05-05 19:14 | 32.75104 | -116.29744 | 13515 ft | 312 kts | 266° |
| 2026-05-05 19:14 | 32.74907 | -116.32300 | 13248 ft | 309 kts | 266° |
| 2026-05-05 19:14 | 32.74714 | -116.34802 | 12858 ft | 308 kts | 266° |
| 2026-05-05 19:15 | 32.74517 | -116.37330 | 12437 ft | 306 kts | 266° |
| 2026-05-05 19:15 | 32.74322 | -116.39841 | 11985 ft | 306 kts | 266° |
| 2026-05-05 19:15 | 32.74126 | -116.42352 | 11533 ft | 305 kts | 265° |
| 2026-05-05 19:15 | 32.73930 | -116.44858 | 11131 ft | 302 kts | 266° |
| 2026-05-05 19:16 | 32.73738 | -116.47289 | 11007 ft | 290 kts | 265° |
| 2026-05-05 19:16 | 32.73553 | -116.49642 | 10805 ft | 281 kts | 266° |
| 2026-05-05 19:16 | 32.73363 | -116.51923 | 10599 ft | 274 kts | 265° |
| 2026-05-05 19:16 | 32.73152 | -116.54171 | 10294 ft | 275 kts | 264° |
| 2026-05-05 19:17 | 32.72932 | -116.56426 | 9966 ft | 275 kts | 264° |
| 2026-05-05 19:17 | 32.72710 | -116.58675 | 9584 ft | 273 kts | 264° |
| 2026-05-05 19:17 | 32.72487 | -116.60909 | 9221 ft | 271 kts | 264° |
| 2026-05-05 19:17 | 32.72267 | -116.63124 | 8893 ft | 269 kts | 264° |
| 2026-05-05 19:18 | 32.72050 | -116.65321 | 8555 ft | 266 kts | 264° |
| 2026-05-05 19:18 | 32.71848 | -116.67496 | 8208 ft | 264 kts | 265° |
| 2026-05-05 19:18 | 32.71675 | -116.69661 | 7871 ft | 264 kts | 265° |
| 2026-05-05 19:18 | 32.71512 | -116.71830 | 7533 ft | 263 kts | 265° |
| 2026-05-05 19:19 | 32.71351 | -116.73976 | 7202 ft | 260 kts | 266° |
| 2026-05-05 19:19 | 32.71187 | -116.76094 | 6868 ft | 251 kts | 266° |
| 2026-05-05 19:19 | 32.71030 | -116.78088 | 6558 ft | 235 kts | 265° |
| 2026-05-05 19:19 | 32.70883 | -116.79968 | 6253 ft | 224 kts | 265° |
| 2026-05-05 19:20 | 32.70704 | -116.81767 | 5998 ft | 216 kts | 259° |
| 2026-05-05 19:20 | 32.70235 | -116.83443 | 5730 ft | 214 kts | 251° |
| 2026-05-05 19:20 | 32.69715 | -116.85093 | 5475 ft | 211 kts | 251° |
| 2026-05-05 19:20 | 32.69203 | -116.86730 | 5250 ft | 213 kts | 250° |
| 2026-05-05 19:21 | 32.68687 | -116.88384 | 5006 ft | 214 kts | 251° |
| 2026-05-05 19:21 | 32.68188 | -116.90039 | 4758 ft | 214 kts | 251° |
| 2026-05-05 19:21 | 32.67700 | -116.91699 | 4514 ft | 211 kts | 252° |
| 2026-05-05 19:21 | 32.67355 | -116.93379 | 4265 ft | 209 kts | 267° |
| 2026-05-05 19:22 | 32.67517 | -116.95050 | 4029 ft | 202 kts | 286° |
| 2026-05-05 19:22 | 32.67913 | -116.96610 | 3842 ft | 194 kts | 285° |
| 2026-05-05 19:22 | 32.68286 | -116.98122 | 3597 ft | 188 kts | 285° |
| 2026-05-05 19:22 | 32.68650 | -116.99610 | 3386 ft | 187 kts | 285° |
| 2026-05-05 19:23 | 32.69009 | -117.01084 | 3161 ft | 186 kts | 285° |
| 2026-05-05 19:23 | 32.69369 | -117.02563 | 2914 ft | 185 kts | 285° |
| 2026-05-05 19:23 | 32.69724 | -117.04021 | 2679 ft | 183 kts | 285° |
| 2026-05-05 19:23 | 32.70075 | -117.05460 | 2444 ft | 180 kts | 285° |
| 2026-05-05 19:24 | 32.70411 | -117.06837 | 2235 ft | 161 kts | 284° |
| 2026-05-05 19:24 | 32.70608 | -117.07639 | 2099 ft | 147 kts | 284° |
| 2026-05-05 19:24 | 32.70886 | -117.08774 | 1891 ft | 140 kts | 285° |
| 2026-05-05 19:24 | 32.71150 | -117.09858 | 1665 ft | 136 kts | 285° |
| 2026-05-05 19:25 | 32.71494 | -117.11285 | 1381 ft | 135 kts | 284° |
| 2026-05-05 19:25 | 32.71741 | -117.12349 | 1190 ft | 132 kts | 286° |
| 2026-05-05 19:25 | 32.71985 | -117.13409 | 973 ft | 133 kts | 287° |
| 2026-05-05 19:25 | 32.72235 | -117.14463 | 780 ft | 133 kts | 288° |
| 2026-05-05 19:26 | 32.72426 | -117.15173 | 643 ft | 133 kts | 289° |
| 2026-05-05 19:26 | 32.72696 | -117.16230 | 412 ft | 133 kts | 285° |
| 2026-05-05 19:26 | 32.72944 | -117.17277 | 211 ft | 131 kts | 285° |
| 2026-05-05 19:26 | 32.73195 | -117.18305 | 37 ft | 125 kts | 285° |
| 2026-05-05 19:27 | 32.73402 | -117.19161 | 22 ft | 86 kts | 286° |
| 2026-05-05 19:27 | 32.73521 | -117.19650 | 27 ft | 37 kts | 286° |
| 2026-05-05 19:27 | 32.73583 | -117.19907 | 24 ft | 30 kts | 287° |
| 2026-05-05 19:27 | 32.73629 | -117.20096 | 24 ft | 16 kts | 286° |
| 2026-05-05 19:28 | 32.73620 | -117.20191 | 23 ft | 11 kts | 222° |
| 2026-05-05 19:28 | 32.73559 | -117.20222 | 25 ft | 8 kts | 198° |
| 2026-05-05 19:28 | 32.73499 | -117.20242 | 23 ft | 9 kts | 195° |
| 2026-05-05 19:28 | 32.73442 | -117.20262 | 23 ft | 9 kts | 196° |
| 2026-05-05 19:29 | 32.73378 | -117.20276 | 23 ft | 10 kts | 180° |
| 2026-05-05 19:29 | 32.73322 | -117.20263 | 23 ft | 5 kts | 163° |
| 2026-05-05 19:29 | 32.73281 | -117.20264 | 23 ft | 7 kts | 194° |
| 2026-05-05 19:29 | 32.73253 | -117.20274 | 23 ft | 3 kts | 198° |
| 2026-05-05 19:30 | 32.73238 | -117.20280 | 23 ft | 2 kts | 200° |
| 2026-05-05 19:30 | 32.73233 | -117.20282 | 23 ft | 0 kts | 200° |